sensor_id;sensor_type;location;lat;lon;timestamp;pressure;altitude;pressure_sealevel;temperature;humidity
34370;BME280;20635;55.812;37.560;2023-08-30T00:00:52;99352.69;;;23.32;61.71
34370;BME280;20635;55.812;37.560;2023-08-30T00:03:18;99343.50;;;23.32;62.03
34370;BME280;20635;55.812;37.560;2023-08-30T00:05:44;99352.69;;;23.32;61.96
34370;BME280;20635;55.812;37.560;2023-08-30T00:08:11;99350.72;;;23.33;62.06
34370;BME280;20635;55.812;37.560;2023-08-30T00:10:39;99354.34;;;23.33;61.97
34370;BME280;20635;55.812;37.560;2023-08-30T00:13:05;99357.13;;;23.33;62.19
34370;BME280;20635;55.812;37.560;2023-08-30T00:15:31;99350.72;;;23.33;62.30
34370;BME280;20635;55.812;37.560;2023-08-30T00:17:57;99347.09;;;23.32;62.28
34370;BME280;20635;55.812;37.560;2023-08-30T00:20:22;99349.91;;;23.32;61.98
34370;BME280;20635;55.812;37.560;2023-08-30T00:22:48;99353.84;;;23.31;62.07
34370;BME280;20635;55.812;37.560;2023-08-30T00:25:15;99351.88;;;23.32;62.13
34370;BME280;20635;55.812;37.560;2023-08-30T00:27:41;99353.03;;;23.31;62.13
34370;BME280;20635;55.812;37.560;2023-08-30T00:30:08;99357.47;;;23.32;62.28
34370;BME280;20635;55.812;37.560;2023-08-30T00:32:35;99358.63;;;23.31;62.55
34370;BME280;20635;55.812;37.560;2023-08-30T00:35:01;99356.66;;;23.31;62.30
34370;BME280;20635;55.812;37.560;2023-08-30T00:37:27;99347.44;;;23.31;62.57
34370;BME280;20635;55.812;37.560;2023-08-30T00:39:53;99357.81;;;23.30;62.19
34370;BME280;20635;55.812;37.560;2023-08-30T00:42:19;99366.19;;;23.30;62.38
34370;BME280;20635;55.812;37.560;2023-08-30T00:44:45;99364.22;;;23.31;62.47
34370;BME280;20635;55.812;37.560;2023-08-30T00:47:11;99358.63;;;23.31;62.35
34370;BME280;20635;55.812;37.560;2023-08-30T00:49:37;99369.81;;;23.31;62.34
34370;BME280;20635;55.812;37.560;2023-08-30T00:52:08;99368.66;;;23.32;62.40
34370;BME280;20635;55.812;37.560;2023-08-30T00:54:35;99370.63;;;23.31;62.27
34370;BME280;20635;55.812;37.560;2023-08-30T00:57:02;99381.31;;;23.29;62.39
34370;BME280;20635;55.812;37.560;2023-08-30T00:59:29;99377.03;;;23.32;62.16
34370;BME280;20635;55.812;37.560;2023-08-30T01:01:58;99367.03;;;23.31;62.31
34370;BME280;20635;55.812;37.560;2023-08-30T01:04:25;99371.78;;;23.30;62.12
34370;BME280;20635;55.812;37.560;2023-08-30T01:06:51;99374.59;;;23.30;62.00
34370;BME280;20635;55.812;37.560;2023-08-30T01:09:17;99385.78;;;23.30;62.33
34370;BME280;20635;55.812;37.560;2023-08-30T01:12:11;99389.22;;;23.36;62.29
34370;BME280;20635;55.812;37.560;2023-08-30T01:14:54;99388.06;;;23.37;62.32
34370;BME280;20635;55.812;37.560;2023-08-30T01:17:24;99384.63;;;23.31;62.10
34370;BME280;20635;55.812;37.560;2023-08-30T01:20:02;99381.16;;;23.34;62.06
34370;BME280;20635;55.812;37.560;2023-08-30T01:23:06;99382.81;;;23.35;62.15
34370;BME280;20635;55.812;37.560;2023-08-30T01:25:55;99381.00;;;23.31;62.17
34370;BME280;20635;55.812;37.560;2023-08-30T01:28:24;99386.59;;;23.31;62.08
34370;BME280;20635;55.812;37.560;2023-08-30T01:30:53;99393.81;;;23.32;62.58
34370;BME280;20635;55.812;37.560;2023-08-30T01:33:24;99392.19;;;23.31;62.15
34370;BME280;20635;55.812;37.560;2023-08-30T01:35:58;99392.66;;;23.33;62.16
34370;BME280;20635;55.812;37.560;2023-08-30T01:38:28;99394.16;;;23.39;62.27
34370;BME280;20635;55.812;37.560;2023-08-30T01:40:56;99387.88;;;23.33;62.04
34370;BME280;20635;55.812;37.560;2023-08-30T01:43:25;99386.59;;;23.31;62.20
34370;BME280;20635;55.812;37.560;2023-08-30T01:45:52;99403.38;;;23.31;62.21
34370;BME280;20635;55.812;37.560;2023-08-30T01:48:18;99392.19;;;23.31;62.23
34370;BME280;20635;55.812;37.560;2023-08-30T01:50:46;99391.38;;;23.30;62.32
34370;BME280;20635;55.812;37.560;2023-08-30T01:53:13;99396.09;;;23.29;62.50
34370;BME280;20635;55.812;37.560;2023-08-30T01:55:40;99399.75;;;23.30;62.28
34370;BME280;20635;55.812;37.560;2023-08-30T01:58:07;99394.16;;;23.30;62.27
34370;BME280;20635;55.812;37.560;2023-08-30T02:00:35;99394.16;;;23.30;62.27
34370;BME280;20635;55.812;37.560;2023-08-30T02:03:08;99394.63;;;23.32;62.48
34370;BME280;20635;55.812;37.560;2023-08-30T02:05:35;99391.38;;;23.30;61.98
34370;BME280;20635;55.812;37.560;2023-08-30T02:10:35;99396.09;;;23.29;62.00
34370;BME280;20635;55.812;37.560;2023-08-30T02:13:04;99394.16;;;23.30;62.20
34370;BME280;20635;55.812;37.560;2023-08-30T02:15:32;99391.38;;;23.30;62.36
34370;BME280;20635;55.812;37.560;2023-08-30T02:17:59;99394.97;;;23.31;61.97
34370;BME280;20635;55.812;37.560;2023-08-30T02:20:25;99387.72;;;23.29;62.24
34370;BME280;20635;55.812;37.560;2023-08-30T02:22:51;99380.47;;;23.28;62.13
34370;BME280;20635;55.812;37.560;2023-08-30T02:25:17;99391.38;;;23.30;62.12
34370;BME280;20635;55.812;37.560;2023-08-30T02:27:43;99389.69;;;23.29;61.83
34370;BME280;20635;55.812;37.560;2023-08-30T02:30:09;99403.38;;;23.31;61.86
34370;BME280;20635;55.812;37.560;2023-08-30T02:32:35;99396.09;;;23.29;62.01
34370;BME280;20635;55.812;37.560;2023-08-30T02:35:02;99402.53;;;23.30;62.03
34370;BME280;20635;55.812;37.560;2023-08-30T02:37:28;99407.28;;;23.29;62.19
34370;BME280;20635;55.812;37.560;2023-08-30T02:39:53;99417.34;;;23.31;62.21
34370;BME280;20635;55.812;37.560;2023-08-30T02:42:19;99418.47;;;23.29;62.28
34370;BME280;20635;55.812;37.560;2023-08-30T02:44:45;99424.91;;;23.30;62.39
34370;BME280;20635;55.812;37.560;2023-08-30T02:47:11;99422.13;;;23.30;62.13
34370;BME280;20635;55.812;37.560;2023-08-30T02:49:37;99413.72;;;23.30;62.25
34370;BME280;20635;55.812;37.560;2023-08-30T02:52:03;99411.75;;;23.31;62.22
34370;BME280;20635;55.812;37.560;2023-08-30T02:54:29;99419.31;;;23.30;61.99
34370;BME280;20635;55.812;37.560;2023-08-30T18:01:37;99415.25;;;23.62;65.50
34370;BME280;20635;55.812;37.560;2023-08-30T18:04:03;99432.06;;;23.62;65.64
34370;BME280;20635;55.812;37.560;2023-08-30T18:06:32;99419.19;;;23.61;65.80
34370;BME280;20635;55.812;37.560;2023-08-30T18:09:00;99426.75;;;23.61;65.85
34370;BME280;20635;55.812;37.560;2023-08-30T18:11:26;99435.16;;;23.61;65.71
34370;BME280;20635;55.812;37.560;2023-08-30T18:13:52;99437.66;;;23.62;65.75
34370;BME280;20635;55.812;37.560;2023-08-30T18:16:19;99442.06;;;23.63;65.82
34370;BME280;20635;55.812;37.560;2023-08-30T18:18:51;99438.16;;;23.64;65.89
34370;BME280;20635;55.812;37.560;2023-08-30T18:21:17;99433.38;;;23.65;65.56
34370;BME280;20635;55.812;37.560;2023-08-30T18:24:19;99428.44;;;23.70;65.75
34370;BME280;20635;55.812;37.560;2023-08-30T18:26:47;99430.75;;;23.68;65.68
34370;BME280;20635;55.812;37.560;2023-08-30T18:29:17;99434.38;;;23.69;65.77
34370;BME280;20635;55.812;37.560;2023-08-30T18:31:50;99430.75;;;23.68;65.56
34370;BME280;20635;55.812;37.560;2023-08-30T18:34:16;99427.63;;;23.70;65.48
34370;BME280;20635;55.812;37.560;2023-08-30T18:36:46;99422.38;;;23.68;65.50
34370;BME280;20635;55.812;37.560;2023-08-30T18:39:12;99438.00;;;23.69;65.91
34370;BME280;20635;55.812;37.560;2023-08-30T18:41:41;99433.22;;;23.70;65.68
34370;BME280;20635;55.812;37.560;2023-08-30T18:44:07;99428.13;;;23.72;65.67
34370;BME280;20635;55.812;37.560;2023-08-30T18:46:33;99437.34;;;23.72;65.49
34370;BME280;20635;55.812;37.560;2023-08-30T18:48:59;99454.13;;;23.72;65.79
34370;BME280;20635;55.812;37.560;2023-08-30T18:51:25;99442.59;;;23.74;66.00
34370;BME280;20635;55.812;37.560;2023-08-30T18:53:52;99442.59;;;23.74;65.74
34370;BME280;20635;55.812;37.560;2023-08-30T18:56:18;99440.97;;;23.73;65.80
34370;BME280;20635;55.812;37.560;2023-08-30T18:58:44;99436.72;;;23.75;66.06
34370;BME280;20635;55.812;37.560;2023-08-30T19:01:12;99440.31;;;23.76;65.98
34370;BME280;20635;55.812;37.560;2023-08-30T19:03:40;99431.94;;;23.76;65.45
34370;BME280;20635;55.812;37.560;2023-08-30T19:06:07;99436.38;;;23.77;65.68
34370;BME280;20635;55.812;37.560;2023-08-30T19:08:36;99425.66;;;23.79;65.65
34370;BME280;20635;55.812;37.560;2023-08-30T19:11:02;99418.41;;;23.78;65.75
34370;BME280;20635;55.812;37.560;2023-08-30T19:13:30;99428.47;;;23.79;65.61
34370;BME280;20635;55.812;37.560;2023-08-30T19:15:58;99423.69;;;23.79;65.92
34370;BME280;20635;55.812;37.560;2023-08-30T19:18:24;99434.06;;;23.79;65.37
34370;BME280;20635;55.812;37.560;2023-08-30T19:20:57;99439.00;;;23.82;65.81
34370;BME280;20635;55.812;37.560;2023-08-30T19:23:24;99440.97;;;23.82;65.52
34370;BME280;20635;55.812;37.560;2023-08-30T19:26:00;99436.53;;;23.81;65.75
34370;BME280;20635;55.812;37.560;2023-08-30T19:28:35;99433.06;;;23.84;65.49
34370;BME280;20635;55.812;37.560;2023-08-30T19:31:01;99423.38;;;23.81;65.20
34370;BME280;20635;55.812;37.560;2023-08-30T19:33:27;99432.59;;;23.82;65.46
34370;BME280;20635;55.812;37.560;2023-08-30T19:35:53;99437.66;;;23.79;65.46
34370;BME280;20635;55.812;37.560;2023-08-30T19:38:19;99438.53;;;23.80;65.49
34370;BME280;20635;55.812;37.560;2023-08-30T19:40:53;99440.34;;;23.85;65.62
34370;BME280;20635;55.812;37.560;2023-08-30T19:43:19;99438.19;;;23.82;65.68
34370;BME280;20635;55.812;37.560;2023-08-30T19:45:46;99444.59;;;23.82;65.56
34370;BME280;20635;55.812;37.560;2023-08-30T19:48:13;99449.84;;;23.84;65.69
34370;BME280;20635;55.812;37.560;2023-08-30T19:50:39;99444.25;;;23.84;65.67
34370;BME280;20635;55.812;37.560;2023-08-30T19:53:06;99454.31;;;23.85;65.81
34370;BME280;20635;55.812;37.560;2023-08-30T19:55:32;99455.16;;;23.85;65.81
34370;BME280;20635;55.812;37.560;2023-08-30T19:57:58;99446.75;;;23.85;65.68
34370;BME280;20635;55.812;37.560;2023-08-30T20:00:25;99445.94;;;23.85;65.28
34370;BME280;20635;55.812;37.560;2023-08-30T20:02:51;99443.94;;;23.85;65.14
34370;BME280;20635;55.812;37.560;2023-08-30T20:05:19;99439.47;;;23.84;65.41
34370;BME280;20635;55.812;37.560;2023-08-30T20:07:47;99451.00;;;23.83;65.56
34370;BME280;20635;55.812;37.560;2023-08-30T20:10:14;99459.06;;;23.84;65.29
34370;BME280;20635;55.812;37.560;2023-08-30T20:12:40;99453.47;;;23.84;65.32
34370;BME280;20635;55.812;37.560;2023-08-30T20:15:07;99456.28;;;23.84;65.08
34370;BME280;20635;55.812;37.560;2023-08-30T20:17:33;99459.06;;;23.84;65.10
34370;BME280;20635;55.812;37.560;2023-08-30T20:19:59;99448.72;;;23.85;65.36
34370;BME280;20635;55.812;37.560;2023-08-30T20:22:26;99457.13;;;23.85;65.45
34370;BME280;20635;55.812;37.560;2023-08-30T20:24:52;99465.53;;;23.85;65.40
34370;BME280;20635;55.812;37.560;2023-08-30T20:27:18;99455.44;;;23.84;65.21
34370;BME280;20635;55.812;37.560;2023-08-30T20:29:44;99452.66;;;23.84;65.14
34370;BME280;20635;55.812;37.560;2023-08-30T20:32:10;99465.81;;;23.83;65.29
34370;BME280;20635;55.812;37.560;2023-08-30T20:34:37;99460.22;;;23.83;65.10
34370;BME280;20635;55.812;37.560;2023-08-30T20:37:03;99458.25;;;23.84;65.39
34370;BME280;20635;55.812;37.560;2023-08-30T20:39:29;99466.66;;;23.84;65.14
34370;BME280;20635;55.812;37.560;2023-08-30T20:41:55;99468.63;;;23.83;65.17
34370;BME280;20635;55.812;37.560;2023-08-30T20:44:21;99461.03;;;23.84;65.23
34370;BME280;20635;55.812;37.560;2023-08-30T20:46:47;99467.47;;;23.84;65.21
34370;BME280;20635;55.812;37.560;2023-08-30T20:49:13;99465.81;;;23.83;65.16
34370;BME280;20635;55.812;37.560;2023-08-30T20:51:39;99455.44;;;23.84;65.08
34370;BME280;20635;55.812;37.560;2023-08-30T20:54:05;99461.03;;;23.84;65.10
34370;BME280;20635;55.812;37.560;2023-08-30T20:56:31;99452.66;;;23.84;65.15
34370;BME280;20635;55.812;37.560;2023-08-30T20:58:58;99442.28;;;23.84;65.06
34370;BME280;20635;55.812;37.560;2023-08-30T21:01:26;99443.94;;;23.85;65.14
34370;BME280;20635;55.812;37.560;2023-08-30T21:03:55;99441.47;;;23.84;65.24
34370;BME280;20635;55.812;37.560;2023-08-30T21:06:23;99445.94;;;23.85;64.87
34370;BME280;20635;55.812;37.560;2023-08-30T21:08:53;99433.88;;;23.84;65.23
34370;BME280;20635;55.812;37.560;2023-08-30T21:11:19;99443.44;;;23.83;65.07
34370;BME280;20635;55.812;37.560;2023-08-30T21:13:45;99440.63;;;23.83;65.21
34370;BME280;20635;55.812;37.560;2023-08-30T21:16:11;99445.41;;;23.83;65.19
34370;BME280;20635;55.812;37.560;2023-08-30T21:18:37;99446.75;;;23.85;65.10
34370;BME280;20635;55.812;37.560;2023-08-30T21:21:03;99443.44;;;23.83;65.12
34370;BME280;20635;55.812;37.560;2023-08-30T21:23:29;99458.25;;;23.84;65.21
34370;BME280;20635;55.812;37.560;2023-08-30T21:25:55;99461.88;;;23.84;65.21
34370;BME280;20635;55.812;37.560;2023-08-30T21:28:21;99456.28;;;23.84;65.14
34370;BME280;20635;55.812;37.560;2023-08-30T21:30:47;99456.28;;;23.84;65.05
34370;BME280;20635;55.812;37.560;2023-08-30T21:33:17;99459.59;;;23.86;65.10
34370;BME280;20635;55.812;37.560;2023-08-30T21:35:45;99456.78;;;23.86;65.23
34370;BME280;20635;55.812;37.560;2023-08-30T21:38:13;99452.34;;;23.85;65.14
34370;BME280;20635;55.812;37.560;2023-08-30T21:40:40;99453.47;;;23.84;65.09
34370;BME280;20635;55.812;37.560;2023-08-30T21:43:08;99452.34;;;23.85;65.07
34370;BME280;20635;55.812;37.560;2023-08-30T21:45:35;99463.53;;;23.85;64.90
34370;BME280;20635;55.812;37.560;2023-08-30T21:48:06;99465.19;;;23.86;65.20
34370;BME280;20635;55.812;37.560;2023-08-30T21:50:33;99461.56;;;23.86;65.26
34370;BME280;20635;55.812;37.560;2023-08-30T21:52:59;99471.59;;;23.87;65.14
34370;BME280;20635;55.812;37.560;2023-08-30T21:55:25;99468.31;;;23.85;65.18
34370;BME280;20635;55.812;37.560;2023-08-30T21:57:51;99453.47;;;23.84;65.19
34370;BME280;20635;55.812;37.560;2023-08-30T22:00:17;99454.31;;;23.85;65.08
34370;BME280;20635;55.812;37.560;2023-08-30T22:02:44;99470.78;;;23.86;65.54
34370;BME280;20635;55.812;37.560;2023-08-30T22:05:14;99455.63;;;23.87;65.29
34370;BME280;20635;55.812;37.560;2023-08-30T22:07:41;99459.59;;;23.86;65.33
34370;BME280;20635;55.812;37.560;2023-08-30T22:10:08;99453.16;;;23.86;65.50
34370;BME280;20635;55.812;37.560;2023-08-30T22:12:42;99455.16;;;23.85;65.44
34370;BME280;20635;55.812;37.560;2023-08-30T22:15:10;99449.56;;;23.85;65.33
34370;BME280;20635;55.812;37.560;2023-08-30T22:17:41;99449.56;;;23.85;65.17
34370;BME280;20635;55.812;37.560;2023-08-30T22:20:08;99440.34;;;23.85;65.19
34370;BME280;20635;55.812;37.560;2023-08-30T22:22:38;99444.44;;;23.87;65.05
34370;BME280;20635;55.812;37.560;2023-08-30T22:25:10;99431.94;;;23.85;64.94
34370;BME280;20635;55.812;37.560;2023-08-30T22:27:37;99434.75;;;23.85;65.00
34370;BME280;20635;55.812;37.560;2023-08-30T22:30:04;99427.47;;;23.84;65.02
34370;BME280;20635;55.812;37.560;2023-08-30T22:32:31;99423.84;;;23.83;64.92
34370;BME280;20635;55.812;37.560;2023-08-30T22:34:57;99433.06;;;23.84;64.97
34370;BME280;20635;55.812;37.560;2023-08-30T22:37:26;99433.06;;;23.84;65.00
34370;BME280;20635;55.812;37.560;2023-08-30T22:39:52;99433.41;;;23.82;64.69
34370;BME280;20635;55.812;37.560;2023-08-30T22:42:18;99435.03;;;23.83;64.72
34370;BME280;20635;55.812;37.560;2023-08-30T22:44:44;99434.22;;;23.83;65.03
34370;BME280;20635;55.812;37.560;2023-08-30T22:47:10;99437.84;;;23.83;65.10
34370;BME280;20635;55.812;37.560;2023-08-30T22:49:36;99437.84;;;23.83;64.89
34370;BME280;20635;55.812;37.560;2023-08-30T22:52:02;99437.84;;;23.83;65.02
34370;BME280;20635;55.812;37.560;2023-08-30T22:54:28;99440.63;;;23.83;65.11
34370;BME280;20635;55.812;37.560;2023-08-30T22:56:55;99437.84;;;23.83;64.93
34370;BME280;20635;55.812;37.560;2023-08-30T22:59:21;99434.22;;;23.83;65.04
34370;BME280;20635;55.812;37.560;2023-08-30T23:01:46;99432.25;;;23.83;65.29
34370;BME280;20635;55.812;37.560;2023-08-30T23:04:12;99431.44;;;23.83;65.17
34370;BME280;20635;55.812;37.560;2023-08-30T23:06:39;99430.59;;;23.82;65.09
34370;BME280;20635;55.812;37.560;2023-08-30T23:09:05;99428.63;;;23.83;64.96
34370;BME280;20635;55.812;37.560;2023-08-30T23:11:31;99425.00;;;23.82;65.28
34370;BME280;20635;55.812;37.560;2023-08-30T23:13:56;99425.00;;;23.82;65.20
34370;BME280;20635;55.812;37.560;2023-08-30T23:16:22;99432.59;;;23.82;65.01
34370;BME280;20635;55.812;37.560;2023-08-30T23:18:50;99421.41;;;23.82;65.08
34370;BME280;20635;55.812;37.560;2023-08-30T23:21:16;99417.78;;;23.81;65.15
34370;BME280;20635;55.812;37.560;2023-08-30T23:23:42;99413.00;;;23.82;65.07
34370;BME280;20635;55.812;37.560;2023-08-30T23:26:08;99420.56;;;23.81;65.10
34370;BME280;20635;55.812;37.560;2023-08-30T23:28:34;99424.19;;;23.82;64.92
34370;BME280;20635;55.812;37.560;2023-08-30T23:31:00;99417.78;;;23.81;64.83
34370;BME280;20635;55.812;37.560;2023-08-30T23:33:26;99418.94;;;23.80;65.13
34370;BME280;20635;55.812;37.560;2023-08-30T23:35:52;99418.09;;;23.79;64.95
34370;BME280;20635;55.812;37.560;2023-08-30T23:38:17;99420.06;;;23.79;64.90
34370;BME280;20635;55.812;37.560;2023-08-30T23:40:43;99425.34;;;23.81;64.83
34370;BME280;20635;55.812;37.560;2023-08-30T23:43:09;99437.66;;;23.79;64.95
34370;BME280;20635;55.812;37.560;2023-08-30T23:45:35;99430.13;;;23.80;64.74
34370;BME280;20635;55.812;37.560;2023-08-30T23:48:02;99429.28;;;23.79;64.97
34370;BME280;20635;55.812;37.560;2023-08-30T23:50:28;99428.47;;;23.79;64.67
34370;BME280;20635;55.812;37.560;2023-08-30T23:52:55;99436.84;;;23.79;64.80
34370;BME280;20635;55.812;37.560;2023-08-30T23:55:21;99442.44;;;23.79;64.69
34370;BME280;20635;55.812;37.560;2023-08-30T23:57:47;99444.44;;;23.78;64.76
